sensor_id;sensor_type;location;lat;lon;timestamp;P1;durP1;ratioP1;P2;durP2;ratioP2
14516;SDS011;7344;50.864;4.362;2023-07-02T00:02:20;35.15;;;17.02;;
14516;SDS011;7344;50.864;4.362;2023-07-02T00:04:46;29.13;;;16.77;;
14516;SDS011;7344;50.864;4.362;2023-07-02T00:07:12;32.60;;;16.17;;
14516;SDS011;7344;50.864;4.362;2023-07-02T00:09:39;23.47;;;17.03;;
14516;SDS011;7344;50.864;4.362;2023-07-02T00:12:05;33.87;;;17.37;;
14516;SDS011;7344;50.864;4.362;2023-07-02T00:14:32;30.93;;;17.23;;
14516;SDS011;7344;50.864;4.362;2023-07-02T00:16:57;28.50;;;17.60;;
14516;SDS011;7344;50.864;4.362;2023-07-02T00:19:23;32.67;;;18.03;;
14516;SDS011;7344;50.864;4.362;2023-07-02T00:21:49;31.60;;;18.13;;
14516;SDS011;7344;50.864;4.362;2023-07-02T00:24:15;32.30;;;17.83;;
14516;SDS011;7344;50.864;4.362;2023-07-02T00:26:41;33.47;;;18.60;;
14516;SDS011;7344;50.864;4.362;2023-07-02T00:29:07;31.47;;;17.93;;
14516;SDS011;7344;50.864;4.362;2023-07-02T00:31:34;35.60;;;18.53;;
14516;SDS011;7344;50.864;4.362;2023-07-02T00:34:00;29.30;;;17.63;;
14516;SDS011;7344;50.864;4.362;2023-07-02T00:36:26;32.17;;;17.90;;
14516;SDS011;7344;50.864;4.362;2023-07-02T00:38:52;36.00;;;19.53;;
14516;SDS011;7344;50.864;4.362;2023-07-02T00:41:18;28.70;;;19.30;;
14516;SDS011;7344;50.864;4.362;2023-07-02T00:43:44;34.23;;;19.60;;
14516;SDS011;7344;50.864;4.362;2023-07-02T00:46:16;35.53;;;19.73;;
14516;SDS011;7344;50.864;4.362;2023-07-02T00:48:45;35.83;;;19.87;;
14516;SDS011;7344;50.864;4.362;2023-07-02T00:51:17;33.30;;;19.93;;
14516;SDS011;7344;50.864;4.362;2023-07-02T00:53:44;33.63;;;20.13;;
14516;SDS011;7344;50.864;4.362;2023-07-02T00:56:11;34.80;;;18.97;;
14516;SDS011;7344;50.864;4.362;2023-07-02T00:58:41;38.03;;;20.03;;
14516;SDS011;7344;50.864;4.362;2023-07-02T01:06:28;35.77;;;20.17;;
14516;SDS011;7344;50.864;4.362;2023-07-02T01:08:58;36.83;;;20.40;;
14516;SDS011;7344;50.864;4.362;2023-07-02T01:11:27;37.22;;;19.92;;
14516;SDS011;7344;50.864;4.362;2023-07-02T01:14:01;38.93;;;20.87;;
14516;SDS011;7344;50.864;4.362;2023-07-02T01:16:30;32.93;;;19.37;;
14516;SDS011;7344;50.864;4.362;2023-07-02T01:18:58;41.13;;;20.75;;
14516;SDS011;7344;50.864;4.362;2023-07-02T01:21:29;36.43;;;21.97;;
14516;SDS011;7344;50.864;4.362;2023-07-02T01:23:56;35.77;;;21.20;;
14516;SDS011;7344;50.864;4.362;2023-07-02T01:26:23;33.08;;;21.02;;
14516;SDS011;7344;50.864;4.362;2023-07-02T01:28:49;37.42;;;21.08;;
14516;SDS011;7344;50.864;4.362;2023-07-02T01:31:15;42.80;;;21.73;;
14516;SDS011;7344;50.864;4.362;2023-07-02T01:33:41;39.85;;;21.38;;
14516;SDS011;7344;50.864;4.362;2023-07-02T01:36:07;35.77;;;21.50;;
14516;SDS011;7344;50.864;4.362;2023-07-02T01:38:33;35.63;;;21.50;;
14516;SDS011;7344;50.864;4.362;2023-07-02T01:40:58;35.47;;;20.25;;
14516;SDS011;7344;50.864;4.362;2023-07-02T01:43:24;37.75;;;21.73;;
14516;SDS011;7344;50.864;4.362;2023-07-02T01:45:50;39.90;;;23.00;;
14516;SDS011;7344;50.864;4.362;2023-07-02T01:48:15;41.90;;;21.52;;
14516;SDS011;7344;50.864;4.362;2023-07-02T01:50:41;40.67;;;22.02;;
14516;SDS011;7344;50.864;4.362;2023-07-02T01:53:06;39.03;;;22.10;;
14516;SDS011;7344;50.864;4.362;2023-07-02T01:55:32;39.47;;;22.45;;
14516;SDS011;7344;50.864;4.362;2023-07-02T01:57:57;40.95;;;21.83;;
14516;SDS011;7344;50.864;4.362;2023-07-02T02:00:23;38.77;;;21.87;;
14516;SDS011;7344;50.864;4.362;2023-07-02T02:02:50;42.20;;;23.02;;
14516;SDS011;7344;50.864;4.362;2023-07-02T02:05:15;39.95;;;22.60;;
14516;SDS011;7344;50.864;4.362;2023-07-02T02:07:41;43.95;;;23.00;;
14516;SDS011;7344;50.864;4.362;2023-07-02T02:10:06;37.97;;;22.02;;
14516;SDS011;7344;50.864;4.362;2023-07-02T02:12:34;37.58;;;23.27;;
14516;SDS011;7344;50.864;4.362;2023-07-02T02:14:59;42.30;;;22.95;;
14516;SDS011;7344;50.864;4.362;2023-07-02T02:17:25;40.37;;;23.90;;
14516;SDS011;7344;50.864;4.362;2023-07-02T02:19:50;43.00;;;22.52;;
14516;SDS011;7344;50.864;4.362;2023-07-02T02:22:16;41.22;;;22.70;;
14516;SDS011;7344;50.864;4.362;2023-07-02T02:24:42;40.03;;;22.80;;
14516;SDS011;7344;50.864;4.362;2023-07-02T02:27:07;40.13;;;23.23;;
14516;SDS011;7344;50.864;4.362;2023-07-02T02:29:33;38.92;;;22.25;;
14516;SDS011;7344;50.864;4.362;2023-07-02T02:31:59;41.72;;;23.10;;
14516;SDS011;7344;50.864;4.362;2023-07-02T02:34:25;45.58;;;23.35;;
14516;SDS011;7344;50.864;4.362;2023-07-02T02:36:51;43.70;;;24.27;;
14516;SDS011;7344;50.864;4.362;2023-07-02T02:39:16;44.65;;;23.90;;
14516;SDS011;7344;50.864;4.362;2023-07-02T02:44:27;42.63;;;23.07;;
14516;SDS011;7344;50.864;4.362;2023-07-02T02:46:52;43.03;;;23.37;;
14516;SDS011;7344;50.864;4.362;2023-07-02T02:49:18;45.07;;;23.90;;
14516;SDS011;7344;50.864;4.362;2023-07-02T02:51:44;45.13;;;23.07;;
14516;SDS011;7344;50.864;4.362;2023-07-02T02:54:09;41.80;;;23.87;;
14516;SDS011;7344;50.864;4.362;2023-07-02T02:56:35;44.55;;;24.13;;
14516;SDS011;7344;50.864;4.362;2023-07-02T02:59:00;51.47;;;26.03;;
14516;SDS011;7344;50.864;4.362;2023-07-02T03:01:26;50.57;;;25.97;;
14516;SDS011;7344;50.864;4.362;2023-07-02T03:03:57;47.90;;;23.53;;
14516;SDS011;7344;50.864;4.362;2023-07-02T03:06:23;46.30;;;24.15;;
14516;SDS011;7344;50.864;4.362;2023-07-02T03:08:49;45.87;;;24.87;;
14516;SDS011;7344;50.864;4.362;2023-07-02T03:11:15;45.97;;;25.13;;
14516;SDS011;7344;50.864;4.362;2023-07-02T03:13:40;47.55;;;24.98;;
14516;SDS011;7344;50.864;4.362;2023-07-02T03:16:06;47.70;;;26.40;;
14516;SDS011;7344;50.864;4.362;2023-07-02T03:18:32;51.37;;;25.07;;
14516;SDS011;7344;50.864;4.362;2023-07-02T03:20:58;45.73;;;25.73;;
14516;SDS011;7344;50.864;4.362;2023-07-02T03:23:24;46.70;;;26.10;;
14516;SDS011;7344;50.864;4.362;2023-07-02T03:25:50;44.73;;;25.70;;
14516;SDS011;7344;50.864;4.362;2023-07-02T03:28:15;54.63;;;27.47;;
14516;SDS011;7344;50.864;4.362;2023-07-02T03:30:41;49.90;;;26.73;;
14516;SDS011;7344;50.864;4.362;2023-07-02T03:33:08;47.30;;;26.07;;
14516;SDS011;7344;50.864;4.362;2023-07-02T03:35:34;52.57;;;28.10;;
14516;SDS011;7344;50.864;4.362;2023-07-02T03:37:59;49.60;;;26.13;;
14516;SDS011;7344;50.864;4.362;2023-07-02T03:40:25;54.47;;;27.33;;
14516;SDS011;7344;50.864;4.362;2023-07-02T03:42:51;53.07;;;27.23;;
14516;SDS011;7344;50.864;4.362;2023-07-02T03:45:16;53.00;;;28.00;;
14516;SDS011;7344;50.864;4.362;2023-07-02T03:47:42;57.27;;;28.17;;
14516;SDS011;7344;50.864;4.362;2023-07-02T03:50:08;55.20;;;28.00;;
14516;SDS011;7344;50.864;4.362;2023-07-02T03:52:34;56.63;;;28.63;;
14516;SDS011;7344;50.864;4.362;2023-07-02T03:55:00;58.07;;;28.63;;
14516;SDS011;7344;50.864;4.362;2023-07-02T03:57:25;55.37;;;28.27;;
14516;SDS011;7344;50.864;4.362;2023-07-02T03:59:51;57.20;;;28.67;;
14516;SDS011;7344;50.864;4.362;2023-07-02T04:02:17;58.20;;;28.50;;
14516;SDS011;7344;50.864;4.362;2023-07-02T04:04:43;57.60;;;28.67;;
14516;SDS011;7344;50.864;4.362;2023-07-02T04:07:09;56.70;;;28.40;;
14516;SDS011;7344;50.864;4.362;2023-07-02T04:09:34;62.47;;;29.17;;
14516;SDS011;7344;50.864;4.362;2023-07-02T04:12:00;65.10;;;28.90;;
14516;SDS011;7344;50.864;4.362;2023-07-02T04:14:26;61.77;;;30.23;;
14516;SDS011;7344;50.864;4.362;2023-07-02T04:16:52;56.83;;;30.23;;
14516;SDS011;7344;50.864;4.362;2023-07-02T04:19:17;54.60;;;28.67;;
14516;SDS011;7344;50.864;4.362;2023-07-02T04:21:43;60.73;;;30.47;;
14516;SDS011;7344;50.864;4.362;2023-07-02T04:24:09;65.17;;;30.43;;
14516;SDS011;7344;50.864;4.362;2023-07-02T04:26:34;58.73;;;30.80;;
14516;SDS011;7344;50.864;4.362;2023-07-02T04:29:01;57.47;;;29.67;;
14516;SDS011;7344;50.864;4.362;2023-07-02T04:31:27;59.77;;;29.77;;
14516;SDS011;7344;50.864;4.362;2023-07-02T04:33:53;52.63;;;29.23;;
14516;SDS011;7344;50.864;4.362;2023-07-02T04:36:18;54.17;;;29.07;;
14516;SDS011;7344;50.864;4.362;2023-07-02T04:38:44;66.47;;;31.43;;
14516;SDS011;7344;50.864;4.362;2023-07-02T04:41:09;58.33;;;29.33;;
14516;SDS011;7344;50.864;4.362;2023-07-02T04:43:35;60.83;;;29.67;;
14516;SDS011;7344;50.864;4.362;2023-07-02T04:46:01;58.40;;;31.23;;
14516;SDS011;7344;50.864;4.362;2023-07-02T04:48:27;58.10;;;29.87;;
14516;SDS011;7344;50.864;4.362;2023-07-02T04:50:53;57.10;;;29.83;;
14516;SDS011;7344;50.864;4.362;2023-07-02T04:53:18;55.90;;;29.90;;
14516;SDS011;7344;50.864;4.362;2023-07-02T04:55:44;59.27;;;30.10;;
14516;SDS011;7344;50.864;4.362;2023-07-02T04:58:09;58.47;;;29.47;;
14516;SDS011;7344;50.864;4.362;2023-07-02T05:00:35;55.53;;;29.57;;
14516;SDS011;7344;50.864;4.362;2023-07-02T05:03:01;56.60;;;29.60;;
14516;SDS011;7344;50.864;4.362;2023-07-02T05:05:26;51.37;;;28.97;;
14516;SDS011;7344;50.864;4.362;2023-07-02T05:07:53;57.55;;;30.15;;
14516;SDS011;7344;50.864;4.362;2023-07-02T05:10:19;55.90;;;29.45;;
14516;SDS011;7344;50.864;4.362;2023-07-02T05:12:45;55.80;;;29.43;;
14516;SDS011;7344;50.864;4.362;2023-07-02T05:15:11;58.53;;;29.33;;
14516;SDS011;7344;50.864;4.362;2023-07-02T05:17:37;58.25;;;30.35;;
14516;SDS011;7344;50.864;4.362;2023-07-02T05:20:03;56.92;;;29.63;;
14516;SDS011;7344;50.864;4.362;2023-07-02T05:22:31;55.03;;;29.20;;
14516;SDS011;7344;50.864;4.362;2023-07-02T05:24:57;51.47;;;28.92;;
14516;SDS011;7344;50.864;4.362;2023-07-02T05:27:23;60.20;;;28.98;;
14516;SDS011;7344;50.864;4.362;2023-07-02T05:29:49;53.38;;;28.23;;
14516;SDS011;7344;50.864;4.362;2023-07-02T05:32:14;54.80;;;28.63;;
14516;SDS011;7344;50.864;4.362;2023-07-02T05:34:40;55.20;;;27.98;;
14516;SDS011;7344;50.864;4.362;2023-07-02T05:37:05;53.45;;;28.45;;
14516;SDS011;7344;50.864;4.362;2023-07-02T05:39:33;52.17;;;28.00;;
14516;SDS011;7344;50.864;4.362;2023-07-02T05:41:59;47.90;;;27.48;;
14516;SDS011;7344;50.864;4.362;2023-07-02T05:44:24;55.55;;;28.70;;
14516;SDS011;7344;50.864;4.362;2023-07-02T05:46:50;44.67;;;26.83;;
14516;SDS011;7344;50.864;4.362;2023-07-02T05:49:15;50.97;;;27.75;;
14516;SDS011;7344;50.864;4.362;2023-07-02T05:51:41;49.55;;;27.85;;
14516;SDS011;7344;50.864;4.362;2023-07-02T05:54:06;49.97;;;28.17;;
14516;SDS011;7344;50.864;4.362;2023-07-02T05:56:32;46.08;;;26.85;;
14516;SDS011;7344;50.864;4.362;2023-07-02T05:58:58;45.75;;;26.75;;
14516;SDS011;7344;50.864;4.362;2023-07-02T06:01:23;48.17;;;26.90;;
14516;SDS011;7344;50.864;4.362;2023-07-02T06:03:49;46.45;;;26.60;;
14516;SDS011;7344;50.864;4.362;2023-07-02T06:06:15;51.85;;;27.70;;
14516;SDS011;7344;50.864;4.362;2023-07-02T06:08:41;45.22;;;26.42;;
14516;SDS011;7344;50.864;4.362;2023-07-02T06:11:07;48.20;;;25.67;;
14516;SDS011;7344;50.864;4.362;2023-07-02T06:13:32;44.38;;;26.20;;
14516;SDS011;7344;50.864;4.362;2023-07-02T06:15:58;45.50;;;25.35;;
14516;SDS011;7344;50.864;4.362;2023-07-02T06:18:23;40.83;;;24.48;;
14516;SDS011;7344;50.864;4.362;2023-07-02T06:20:50;44.20;;;24.65;;
14516;SDS011;7344;50.864;4.362;2023-07-02T06:23:15;39.92;;;24.70;;
14516;SDS011;7344;50.864;4.362;2023-07-02T06:25:41;39.33;;;23.88;;
14516;SDS011;7344;50.864;4.362;2023-07-02T06:28:07;38.90;;;23.75;;
14516;SDS011;7344;50.864;4.362;2023-07-02T06:30:32;39.75;;;23.20;;
14516;SDS011;7344;50.864;4.362;2023-07-02T06:32:58;44.47;;;24.05;;
14516;SDS011;7344;50.864;4.362;2023-07-02T06:35:24;40.40;;;24.25;;
14516;SDS011;7344;50.864;4.362;2023-07-02T06:37:49;36.63;;;23.48;;
14516;SDS011;7344;50.864;4.362;2023-07-02T06:40:15;35.92;;;22.23;;
14516;SDS011;7344;50.864;4.362;2023-07-02T06:42:40;35.95;;;23.15;;
14516;SDS011;7344;50.864;4.362;2023-07-02T06:45:06;40.92;;;22.38;;
14516;SDS011;7344;50.864;4.362;2023-07-02T06:47:32;38.13;;;21.25;;
14516;SDS011;7344;50.864;4.362;2023-07-02T06:49:58;33.95;;;20.70;;
14516;SDS011;7344;50.864;4.362;2023-07-02T06:52:24;33.38;;;20.92;;
14516;SDS011;7344;50.864;4.362;2023-07-02T06:54:50;33.10;;;20.50;;
14516;SDS011;7344;50.864;4.362;2023-07-02T06:57:16;32.55;;;20.98;;
14516;SDS011;7344;50.864;4.362;2023-07-02T06:59:41;33.35;;;20.92;;
14516;SDS011;7344;50.864;4.362;2023-07-02T07:02:07;29.48;;;19.20;;
14516;SDS011;7344;50.864;4.362;2023-07-02T07:04:33;34.08;;;19.98;;
14516;SDS011;7344;50.864;4.362;2023-07-02T07:07:01;32.15;;;19.35;;
14516;SDS011;7344;50.864;4.362;2023-07-02T07:09:30;28.23;;;17.15;;
14516;SDS011;7344;50.864;4.362;2023-07-02T07:11:55;26.92;;;15.95;;
14516;SDS011;7344;50.864;4.362;2023-07-02T07:14:21;26.65;;;15.38;;
14516;SDS011;7344;50.864;4.362;2023-07-02T07:16:47;23.55;;;13.93;;
14516;SDS011;7344;50.864;4.362;2023-07-02T07:19:13;27.17;;;15.40;;
14516;SDS011;7344;50.864;4.362;2023-07-02T07:21:39;23.48;;;15.60;;
14516;SDS011;7344;50.864;4.362;2023-07-02T07:24:05;26.30;;;15.35;;
14516;SDS011;7344;50.864;4.362;2023-07-02T07:26:31;23.30;;;14.93;;
14516;SDS011;7344;50.864;4.362;2023-07-02T07:28:57;24.85;;;14.82;;
14516;SDS011;7344;50.864;4.362;2023-07-02T07:31:23;24.58;;;14.13;;
14516;SDS011;7344;50.864;4.362;2023-07-02T07:33:49;22.95;;;13.52;;
14516;SDS011;7344;50.864;4.362;2023-07-02T07:36:15;26.65;;;13.73;;
14516;SDS011;7344;50.864;4.362;2023-07-02T07:38:42;21.35;;;12.45;;
14516;SDS011;7344;50.864;4.362;2023-07-02T07:41:08;24.10;;;13.57;;
14516;SDS011;7344;50.864;4.362;2023-07-02T07:43:34;24.15;;;13.25;;
14516;SDS011;7344;50.864;4.362;2023-07-02T07:46:00;18.80;;;12.05;;
14516;SDS011;7344;50.864;4.362;2023-07-02T07:48:25;21.83;;;12.32;;
14516;SDS011;7344;50.864;4.362;2023-07-02T07:50:51;19.35;;;11.38;;
14516;SDS011;7344;50.864;4.362;2023-07-02T07:53:17;20.60;;;11.18;;
14516;SDS011;7344;50.864;4.362;2023-07-02T07:55:43;16.52;;;11.25;;
14516;SDS011;7344;50.864;4.362;2023-07-02T07:58:08;20.77;;;11.52;;
14516;SDS011;7344;50.864;4.362;2023-07-02T08:00:34;16.88;;;11.27;;
14516;SDS011;7344;50.864;4.362;2023-07-02T08:02:59;26.40;;;12.23;;
14516;SDS011;7344;50.864;4.362;2023-07-02T08:05:26;21.65;;;11.80;;
14516;SDS011;7344;50.864;4.362;2023-07-02T08:07:51;19.15;;;10.77;;
14516;SDS011;7344;50.864;4.362;2023-07-02T08:10:18;20.02;;;10.88;;
14516;SDS011;7344;50.864;4.362;2023-07-02T08:12:44;20.05;;;11.88;;
14516;SDS011;7344;50.864;4.362;2023-07-02T08:15:12;19.50;;;11.00;;
14516;SDS011;7344;50.864;4.362;2023-07-02T08:17:37;17.73;;;11.38;;
14516;SDS011;7344;50.864;4.362;2023-07-02T08:20:03;17.25;;;11.52;;
14516;SDS011;7344;50.864;4.362;2023-07-02T08:22:30;16.75;;;11.38;;
14516;SDS011;7344;50.864;4.362;2023-07-02T08:24:55;19.17;;;12.05;;
14516;SDS011;7344;50.864;4.362;2023-07-02T08:27:21;19.52;;;11.95;;
14516;SDS011;7344;50.864;4.362;2023-07-02T08:29:48;17.98;;;11.98;;
14516;SDS011;7344;50.864;4.362;2023-07-02T08:32:14;18.23;;;11.85;;
14516;SDS011;7344;50.864;4.362;2023-07-02T08:34:40;17.17;;;12.02;;
14516;SDS011;7344;50.864;4.362;2023-07-02T08:37:06;19.65;;;11.93;;
14516;SDS011;7344;50.864;4.362;2023-07-02T08:39:32;20.40;;;12.15;;
14516;SDS011;7344;50.864;4.362;2023-07-02T08:41:57;22.05;;;12.75;;
14516;SDS011;7344;50.864;4.362;2023-07-02T08:44:23;21.23;;;13.23;;
14516;SDS011;7344;50.864;4.362;2023-07-02T08:46:49;20.88;;;13.20;;
14516;SDS011;7344;50.864;4.362;2023-07-02T08:49:16;22.33;;;13.82;;
14516;SDS011;7344;50.864;4.362;2023-07-02T08:51:44;21.23;;;13.20;;
14516;SDS011;7344;50.864;4.362;2023-07-02T08:54:10;23.15;;;12.75;;
14516;SDS011;7344;50.864;4.362;2023-07-02T08:56:36;21.98;;;13.15;;
14516;SDS011;7344;50.864;4.362;2023-07-02T08:59:03;18.98;;;12.75;;
14516;SDS011;7344;50.864;4.362;2023-07-02T09:01:28;24.52;;;13.52;;
14516;SDS011;7344;50.864;4.362;2023-07-02T09:03:58;19.25;;;12.70;;
14516;SDS011;7344;50.864;4.362;2023-07-02T09:06:27;22.58;;;13.60;;
14516;SDS011;7344;50.864;4.362;2023-07-02T09:08:53;21.17;;;12.75;;
14516;SDS011;7344;50.864;4.362;2023-07-02T09:11:27;24.38;;;14.15;;
14516;SDS011;7344;50.864;4.362;2023-07-02T09:13:53;22.77;;;12.73;;
14516;SDS011;7344;50.864;4.362;2023-07-02T09:16:33;22.30;;;12.93;;
14516;SDS011;7344;50.864;4.362;2023-07-02T09:19:05;21.98;;;12.48;;
14516;SDS011;7344;50.864;4.362;2023-07-02T09:21:38;24.67;;;13.10;;
14516;SDS011;7344;50.864;4.362;2023-07-02T09:24:21;19.85;;;12.50;;
14516;SDS011;7344;50.864;4.362;2023-07-02T09:26:49;25.98;;;13.23;;
14516;SDS011;7344;50.864;4.362;2023-07-02T09:29:22;21.55;;;13.00;;
14516;SDS011;7344;50.864;4.362;2023-07-02T09:31:58;22.65;;;12.50;;
14516;SDS011;7344;50.864;4.362;2023-07-02T09:34:29;22.88;;;12.70;;
14516;SDS011;7344;50.864;4.362;2023-07-02T09:36:56;23.23;;;13.05;;
14516;SDS011;7344;50.864;4.362;2023-07-02T09:39:29;21.13;;;12.90;;
14516;SDS011;7344;50.864;4.362;2023-07-02T09:41:57;20.85;;;11.70;;
14516;SDS011;7344;50.864;4.362;2023-07-02T09:44:28;22.02;;;12.70;;
14516;SDS011;7344;50.864;4.362;2023-07-02T09:47:00;20.75;;;12.45;;
14516;SDS011;7344;50.864;4.362;2023-07-02T09:49:29;20.58;;;13.15;;
14516;SDS011;7344;50.864;4.362;2023-07-02T09:51:58;20.30;;;12.65;;
14516;SDS011;7344;50.864;4.362;2023-07-02T09:54:26;21.48;;;12.02;;
14516;SDS011;7344;50.864;4.362;2023-07-02T09:56:52;25.17;;;12.40;;
14516;SDS011;7344;50.864;4.362;2023-07-02T09:59:18;20.90;;;12.32;;
14516;SDS011;7344;50.864;4.362;2023-07-02T10:01:44;22.92;;;12.13;;
14516;SDS011;7344;50.864;4.362;2023-07-02T10:04:11;21.90;;;12.13;;
14516;SDS011;7344;50.864;4.362;2023-07-02T10:06:44;18.02;;;11.70;;
14516;SDS011;7344;50.864;4.362;2023-07-02T10:09:14;20.02;;;11.70;;
14516;SDS011;7344;50.864;4.362;2023-07-02T10:11:40;25.33;;;11.75;;
14516;SDS011;7344;50.864;4.362;2023-07-02T10:14:06;21.15;;;12.63;;
14516;SDS011;7344;50.864;4.362;2023-07-02T10:16:32;19.13;;;11.13;;
14516;SDS011;7344;50.864;4.362;2023-07-02T10:19:12;21.23;;;12.10;;
14516;SDS011;7344;50.864;4.362;2023-07-02T10:21:38;17.70;;;11.70;;
14516;SDS011;7344;50.864;4.362;2023-07-02T10:24:11;18.63;;;11.15;;
14516;SDS011;7344;50.864;4.362;2023-07-02T10:26:37;17.95;;;11.15;;
14516;SDS011;7344;50.864;4.362;2023-07-02T10:29:03;19.60;;;11.80;;
14516;SDS011;7344;50.864;4.362;2023-07-02T10:31:29;17.50;;;10.60;;
14516;SDS011;7344;50.864;4.362;2023-07-02T10:33:54;18.98;;;11.15;;
14516;SDS011;7344;50.864;4.362;2023-07-02T10:36:21;18.17;;;10.82;;
14516;SDS011;7344;50.864;4.362;2023-07-02T10:38:48;19.83;;;11.35;;
14516;SDS011;7344;50.864;4.362;2023-07-02T10:41:24;17.95;;;11.52;;
14516;SDS011;7344;50.864;4.362;2023-07-02T10:43:51;24.13;;;11.80;;
14516;SDS011;7344;50.864;4.362;2023-07-02T10:46:18;22.50;;;11.52;;
14516;SDS011;7344;50.864;4.362;2023-07-02T10:48:51;22.15;;;11.40;;
14516;SDS011;7344;50.864;4.362;2023-07-02T10:51:20;22.52;;;11.85;;
14516;SDS011;7344;50.864;4.362;2023-07-02T10:53:59;17.45;;;11.48;;
14516;SDS011;7344;50.864;4.362;2023-07-02T10:56:28;24.15;;;11.30;;
14516;SDS011;7344;50.864;4.362;2023-07-02T10:58:54;16.52;;;11.95;;
14516;SDS011;7344;50.864;4.362;2023-07-02T11:01:24;19.95;;;11.80;;
14516;SDS011;7344;50.864;4.362;2023-07-02T11:03:57;19.67;;;11.73;;
14516;SDS011;7344;50.864;4.362;2023-07-02T11:06:27;15.98;;;10.32;;
14516;SDS011;7344;50.864;4.362;2023-07-02T11:08:54;21.58;;;10.73;;
14516;SDS011;7344;50.864;4.362;2023-07-02T11:11:22;16.88;;;10.20;;
14516;SDS011;7344;50.864;4.362;2023-07-02T11:13:49;22.88;;;11.18;;
14516;SDS011;7344;50.864;4.362;2023-07-02T11:18:51;18.85;;;10.70;;
14516;SDS011;7344;50.864;4.362;2023-07-02T11:21:32;17.15;;;10.30;;
14516;SDS011;7344;50.864;4.362;2023-07-02T11:24:05;17.63;;;10.45;;
14516;SDS011;7344;50.864;4.362;2023-07-02T11:26:36;21.40;;;10.77;;
14516;SDS011;7344;50.864;4.362;2023-07-02T11:29:12;19.55;;;10.55;;
14516;SDS011;7344;50.864;4.362;2023-07-02T11:31:42;18.17;;;10.23;;
14516;SDS011;7344;50.864;4.362;2023-07-02T11:34:12;16.00;;;10.88;;
14516;SDS011;7344;50.864;4.362;2023-07-02T11:36:47;17.02;;;10.82;;
14516;SDS011;7344;50.864;4.362;2023-07-02T11:39:13;15.93;;;9.98;;
14516;SDS011;7344;50.864;4.362;2023-07-02T11:41:43;16.30;;;10.30;;
14516;SDS011;7344;50.864;4.362;2023-07-02T11:44:10;17.45;;;9.80;;
14516;SDS011;7344;50.864;4.362;2023-07-02T11:46:35;16.92;;;9.88;;
14516;SDS011;7344;50.864;4.362;2023-07-02T11:49:02;15.57;;;9.98;;
14516;SDS011;7344;50.864;4.362;2023-07-02T11:51:33;15.48;;;9.77;;
14516;SDS011;7344;50.864;4.362;2023-07-02T11:54:03;21.35;;;10.55;;
14516;SDS011;7344;50.864;4.362;2023-07-02T11:56:29;18.98;;;10.40;;
14516;SDS011;7344;50.864;4.362;2023-07-02T11:58:55;17.55;;;9.73;;
14516;SDS011;7344;50.864;4.362;2023-07-02T12:01:21;18.50;;;10.02;;
14516;SDS011;7344;50.864;4.362;2023-07-02T12:03:46;16.98;;;10.55;;
14516;SDS011;7344;50.864;4.362;2023-07-02T12:06:12;16.33;;;10.48;;
14516;SDS011;7344;50.864;4.362;2023-07-02T12:08:38;16.02;;;10.23;;
14516;SDS011;7344;50.864;4.362;2023-07-02T12:11:03;16.38;;;10.40;;
14516;SDS011;7344;50.864;4.362;2023-07-02T12:13:29;19.33;;;10.73;;
14516;SDS011;7344;50.864;4.362;2023-07-02T12:15:54;14.15;;;10.15;;
14516;SDS011;7344;50.864;4.362;2023-07-02T12:18:20;17.38;;;10.35;;
14516;SDS011;7344;50.864;4.362;2023-07-02T12:20:46;20.77;;;11.00;;
14516;SDS011;7344;50.864;4.362;2023-07-02T12:23:12;19.13;;;10.57;;
14516;SDS011;7344;50.864;4.362;2023-07-02T12:25:37;17.33;;;10.70;;
14516;SDS011;7344;50.864;4.362;2023-07-02T12:28:03;17.10;;;10.20;;
14516;SDS011;7344;50.864;4.362;2023-07-02T12:30:29;18.70;;;10.80;;
14516;SDS011;7344;50.864;4.362;2023-07-02T12:32:55;18.77;;;10.55;;
14516;SDS011;7344;50.864;4.362;2023-07-02T12:35:21;16.80;;;10.13;;
14516;SDS011;7344;50.864;4.362;2023-07-02T12:37:48;17.42;;;10.65;;
14516;SDS011;7344;50.864;4.362;2023-07-02T12:40:15;15.57;;;9.85;;
14516;SDS011;7344;50.864;4.362;2023-07-02T12:42:42;12.65;;;9.07;;
14516;SDS011;7344;50.864;4.362;2023-07-02T12:45:08;15.90;;;10.10;;
14516;SDS011;7344;50.864;4.362;2023-07-02T12:47:36;15.95;;;9.70;;
14516;SDS011;7344;50.864;4.362;2023-07-02T12:50:02;18.33;;;10.15;;
14516;SDS011;7344;50.864;4.362;2023-07-02T12:52:29;15.30;;;9.35;;
14516;SDS011;7344;50.864;4.362;2023-07-02T12:54:55;15.05;;;9.43;;
14516;SDS011;7344;50.864;4.362;2023-07-02T12:57:20;14.95;;;9.27;;
14516;SDS011;7344;50.864;4.362;2023-07-02T12:59:46;14.73;;;9.00;;
14516;SDS011;7344;50.864;4.362;2023-07-02T13:02:11;15.25;;;9.00;;
14516;SDS011;7344;50.864;4.362;2023-07-02T13:04:38;14.57;;;9.55;;
14516;SDS011;7344;50.864;4.362;2023-07-02T13:07:04;14.55;;;9.77;;
14516;SDS011;7344;50.864;4.362;2023-07-02T13:09:30;17.55;;;9.48;;
14516;SDS011;7344;50.864;4.362;2023-07-02T13:11:56;13.80;;;8.50;;
14516;SDS011;7344;50.864;4.362;2023-07-02T13:14:22;15.00;;;9.05;;
14516;SDS011;7344;50.864;4.362;2023-07-02T13:16:47;14.55;;;9.23;;
14516;SDS011;7344;50.864;4.362;2023-07-02T13:19:13;15.82;;;8.85;;
14516;SDS011;7344;50.864;4.362;2023-07-02T13:21:40;14.45;;;9.18;;
14516;SDS011;7344;50.864;4.362;2023-07-02T13:24:06;16.17;;;9.30;;
14516;SDS011;7344;50.864;4.362;2023-07-02T13:26:32;18.15;;;9.02;;
14516;SDS011;7344;50.864;4.362;2023-07-02T13:28:58;13.85;;;8.35;;
14516;SDS011;7344;50.864;4.362;2023-07-02T13:31:23;16.33;;;8.95;;
14516;SDS011;7344;50.864;4.362;2023-07-02T13:33:49;15.70;;;8.48;;
14516;SDS011;7344;50.864;4.362;2023-07-02T13:36:15;16.30;;;8.82;;
14516;SDS011;7344;50.864;4.362;2023-07-02T13:38:41;14.85;;;8.88;;
14516;SDS011;7344;50.864;4.362;2023-07-02T13:41:07;14.13;;;8.43;;
14516;SDS011;7344;50.864;4.362;2023-07-02T13:43:33;13.48;;;9.00;;
14516;SDS011;7344;50.864;4.362;2023-07-02T13:45:58;14.95;;;9.20;;
14516;SDS011;7344;50.864;4.362;2023-07-02T13:48:24;17.75;;;8.90;;
14516;SDS011;7344;50.864;4.362;2023-07-02T13:50:50;15.98;;;9.40;;
14516;SDS011;7344;50.864;4.362;2023-07-02T13:53:15;17.10;;;9.43;;
14516;SDS011;7344;50.864;4.362;2023-07-02T13:55:41;16.50;;;9.10;;
14516;SDS011;7344;50.864;4.362;2023-07-02T13:58:07;14.50;;;9.02;;
14516;SDS011;7344;50.864;4.362;2023-07-02T14:00:32;13.52;;;9.18;;
14516;SDS011;7344;50.864;4.362;2023-07-02T14:02:58;15.23;;;8.80;;
14516;SDS011;7344;50.864;4.362;2023-07-02T14:05:24;18.95;;;9.13;;
14516;SDS011;7344;50.864;4.362;2023-07-02T14:07:49;15.50;;;8.73;;
14516;SDS011;7344;50.864;4.362;2023-07-02T14:10:15;17.17;;;9.32;;
14516;SDS011;7344;50.864;4.362;2023-07-02T14:12:41;16.25;;;8.80;;
14516;SDS011;7344;50.864;4.362;2023-07-02T14:15:07;14.15;;;8.93;;
14516;SDS011;7344;50.864;4.362;2023-07-02T14:17:34;14.73;;;8.80;;
14516;SDS011;7344;50.864;4.362;2023-07-02T14:20:00;17.10;;;9.13;;
14516;SDS011;7344;50.864;4.362;2023-07-02T14:22:26;14.48;;;8.73;;
14516;SDS011;7344;50.864;4.362;2023-07-02T14:24:52;16.55;;;9.02;;
14516;SDS011;7344;50.864;4.362;2023-07-02T14:27:17;16.23;;;8.70;;
14516;SDS011;7344;50.864;4.362;2023-07-02T14:29:43;12.13;;;8.80;;
14516;SDS011;7344;50.864;4.362;2023-07-02T14:32:08;14.43;;;8.70;;
14516;SDS011;7344;50.864;4.362;2023-07-02T14:34:34;15.82;;;8.60;;
14516;SDS011;7344;50.864;4.362;2023-07-02T14:37:01;15.43;;;9.10;;
14516;SDS011;7344;50.864;4.362;2023-07-02T14:39:27;13.25;;;8.60;;
14516;SDS011;7344;50.864;4.362;2023-07-02T14:41:53;13.98;;;8.27;;
14516;SDS011;7344;50.864;4.362;2023-07-02T14:44:19;16.55;;;9.07;;